sensor_id;sensor_type;location;lat;lon;timestamp;pressure;altitude;pressure_sealevel;temperature
45850;BMP180;10739;52.198;20.908;2023-12-14T00:02:00;99209.00;;;4.90
45850;BMP180;10739;52.198;20.908;2023-12-14T00:04:44;99216.00;;;4.90
45850;BMP180;10739;52.198;20.908;2023-12-14T00:07:10;99215.00;;;4.80
45850;BMP180;10739;52.198;20.908;2023-12-14T00:09:40;99217.00;;;4.80
45850;BMP180;10739;52.198;20.908;2023-12-14T00:12:07;99227.00;;;4.70
45850;BMP180;10739;52.198;20.908;2023-12-14T00:14:33;99223.00;;;4.80
45850;BMP180;10739;52.198;20.908;2023-12-14T00:17:00;99221.00;;;4.80
45850;BMP180;10739;52.198;20.908;2023-12-14T00:19:26;99228.00;;;4.80
45850;BMP180;10739;52.198;20.908;2023-12-14T00:21:52;99223.00;;;4.80
45850;BMP180;10739;52.198;20.908;2023-12-14T00:24:19;99225.00;;;4.80
45850;BMP180;10739;52.198;20.908;2023-12-14T00:26:45;99226.00;;;4.80
45850;BMP180;10739;52.198;20.908;2023-12-14T00:29:11;99236.00;;;4.80
45850;BMP180;10739;52.198;20.908;2023-12-14T00:31:38;99230.00;;;4.80
45850;BMP180;10739;52.198;20.908;2023-12-14T00:34:04;99239.00;;;4.80
45850;BMP180;10739;52.198;20.908;2023-12-14T00:36:30;99235.00;;;4.80
45850;BMP180;10739;52.198;20.908;2023-12-14T00:38:56;99233.00;;;4.70
45850;BMP180;10739;52.198;20.908;2023-12-14T00:41:23;99240.00;;;4.80
45850;BMP180;10739;52.198;20.908;2023-12-14T00:43:49;99243.00;;;4.70
45850;BMP180;10739;52.198;20.908;2023-12-14T00:46:15;99247.00;;;4.80
45850;BMP180;10739;52.198;20.908;2023-12-14T00:48:42;99250.00;;;4.80
45850;BMP180;10739;52.198;20.908;2023-12-14T00:51:09;99256.00;;;4.80
45850;BMP180;10739;52.198;20.908;2023-12-14T00:53:35;99254.00;;;4.80
45850;BMP180;10739;52.198;20.908;2023-12-14T00:56:02;99257.00;;;4.80
45850;BMP180;10739;52.198;20.908;2023-12-14T00:58:28;99251.00;;;4.70
45850;BMP180;10739;52.198;20.908;2023-12-14T01:00:54;99253.00;;;4.80
45850;BMP180;10739;52.198;20.908;2023-12-14T01:03:21;99259.00;;;4.70
45850;BMP180;10739;52.198;20.908;2023-12-14T01:05:47;99257.00;;;4.70
45850;BMP180;10739;52.198;20.908;2023-12-14T01:08:14;99255.00;;;4.60
45850;BMP180;10739;52.198;20.908;2023-12-14T01:10:41;99256.00;;;4.60
45850;BMP180;10739;52.198;20.908;2023-12-14T01:13:07;99258.00;;;4.70
45850;BMP180;10739;52.198;20.908;2023-12-14T01:15:33;99250.00;;;4.70
45850;BMP180;10739;52.198;20.908;2023-12-14T01:18:00;99254.00;;;4.70
45850;BMP180;10739;52.198;20.908;2023-12-14T01:20:26;99258.00;;;4.70
45850;BMP180;10739;52.198;20.908;2023-12-14T01:22:53;99264.00;;;4.70
45850;BMP180;10739;52.198;20.908;2023-12-14T01:25:19;99261.00;;;4.70
45850;BMP180;10739;52.198;20.908;2023-12-14T01:27:45;99256.00;;;4.80
45850;BMP180;10739;52.198;20.908;2023-12-14T01:30:12;99263.00;;;4.70
45850;BMP180;10739;52.198;20.908;2023-12-14T01:32:39;99264.00;;;4.90
45850;BMP180;10739;52.198;20.908;2023-12-14T01:35:05;99260.00;;;4.90
45850;BMP180;10739;52.198;20.908;2023-12-14T01:37:31;99253.00;;;4.80
45850;BMP180;10739;52.198;20.908;2023-12-14T01:39:58;99259.00;;;4.80
45850;BMP180;10739;52.198;20.908;2023-12-14T01:42:24;99271.00;;;4.90
45850;BMP180;10739;52.198;20.908;2023-12-14T01:44:50;99272.00;;;5.00
45850;BMP180;10739;52.198;20.908;2023-12-14T01:47:17;99268.00;;;4.80
45850;BMP180;10739;52.198;20.908;2023-12-14T01:49:43;99262.00;;;4.60
45850;BMP180;10739;52.198;20.908;2023-12-14T01:52:09;99270.00;;;4.60
45850;BMP180;10739;52.198;20.908;2023-12-14T01:54:36;99261.00;;;4.70
45850;BMP180;10739;52.198;20.908;2023-12-14T01:57:02;99264.00;;;4.70
45850;BMP180;10739;52.198;20.908;2023-12-14T01:59:28;99264.00;;;4.60
45850;BMP180;10739;52.198;20.908;2023-12-14T02:01:56;99259.00;;;4.60
45850;BMP180;10739;52.198;20.908;2023-12-14T02:04:25;99260.00;;;4.70
45850;BMP180;10739;52.198;20.908;2023-12-14T02:06:52;99257.00;;;4.60
45850;BMP180;10739;52.198;20.908;2023-12-14T02:09:18;99260.00;;;4.70
45850;BMP180;10739;52.198;20.908;2023-12-14T02:11:45;99258.00;;;4.60
45850;BMP180;10739;52.198;20.908;2023-12-14T02:14:12;99263.00;;;4.70
45850;BMP180;10739;52.198;20.908;2023-12-14T02:16:38;99258.00;;;4.70
45850;BMP180;10739;52.198;20.908;2023-12-14T02:19:05;99243.00;;;4.60
45850;BMP180;10739;52.198;20.908;2023-12-14T02:21:32;99253.00;;;4.70
45850;BMP180;10739;52.198;20.908;2023-12-14T02:23:58;99243.00;;;4.70
45850;BMP180;10739;52.198;20.908;2023-12-14T02:26:24;99239.00;;;4.70
45850;BMP180;10739;52.198;20.908;2023-12-14T02:28:50;99241.00;;;4.60
45850;BMP180;10739;52.198;20.908;2023-12-14T02:31:19;99252.00;;;4.60
45850;BMP180;10739;52.198;20.908;2023-12-14T02:33:46;99238.00;;;4.60
45850;BMP180;10739;52.198;20.908;2023-12-14T02:36:12;99248.00;;;4.80
45850;BMP180;10739;52.198;20.908;2023-12-14T02:38:38;99252.00;;;4.80
45850;BMP180;10739;52.198;20.908;2023-12-14T02:41:05;99250.00;;;4.90
45850;BMP180;10739;52.198;20.908;2023-12-14T02:43:31;99248.00;;;4.80
45850;BMP180;10739;52.198;20.908;2023-12-14T02:45:57;99255.00;;;4.80
45850;BMP180;10739;52.198;20.908;2023-12-14T02:48:28;99258.00;;;4.90
45850;BMP180;10739;52.198;20.908;2023-12-14T02:50:58;99246.00;;;4.70
45850;BMP180;10739;52.198;20.908;2023-12-14T02:53:26;99249.00;;;4.70
45850;BMP180;10739;52.198;20.908;2023-12-14T02:55:53;99259.00;;;4.90
45850;BMP180;10739;52.198;20.908;2023-12-14T02:58:19;99265.00;;;4.80
45850;BMP180;10739;52.198;20.908;2023-12-14T03:00:45;99265.00;;;4.90
45850;BMP180;10739;52.198;20.908;2023-12-14T03:03:12;99257.00;;;4.90
45850;BMP180;10739;52.198;20.908;2023-12-14T03:05:38;99255.00;;;4.70
45850;BMP180;10739;52.198;20.908;2023-12-14T03:08:04;99256.00;;;4.70
45850;BMP180;10739;52.198;20.908;2023-12-14T03:10:31;99261.00;;;4.60
45850;BMP180;10739;52.198;20.908;2023-12-14T03:12:57;99270.00;;;4.70
45850;BMP180;10739;52.198;20.908;2023-12-14T03:15:23;99270.00;;;4.80
45850;BMP180;10739;52.198;20.908;2023-12-14T03:17:50;99284.00;;;4.70
45850;BMP180;10739;52.198;20.908;2023-12-14T03:20:16;99280.00;;;4.60
45850;BMP180;10739;52.198;20.908;2023-12-14T03:22:43;99276.00;;;4.60
45850;BMP180;10739;52.198;20.908;2023-12-14T03:25:09;99279.00;;;4.60
45850;BMP180;10739;52.198;20.908;2023-12-14T03:27:36;99283.00;;;4.70
45850;BMP180;10739;52.198;20.908;2023-12-14T03:30:03;99284.00;;;4.70
45850;BMP180;10739;52.198;20.908;2023-12-14T03:32:34;99296.00;;;4.80
45850;BMP180;10739;52.198;20.908;2023-12-14T03:35:00;99298.00;;;4.90
45850;BMP180;10739;52.198;20.908;2023-12-14T03:37:26;99289.00;;;4.90
45850;BMP180;10739;52.198;20.908;2023-12-14T03:39:53;99287.00;;;4.80
45850;BMP180;10739;52.198;20.908;2023-12-14T03:42:19;99294.00;;;4.80
45850;BMP180;10739;52.198;20.908;2023-12-14T03:44:45;99290.00;;;4.80
45850;BMP180;10739;52.198;20.908;2023-12-14T03:47:12;99296.00;;;4.70
45850;BMP180;10739;52.198;20.908;2023-12-14T03:49:38;99289.00;;;4.80
45850;BMP180;10739;52.198;20.908;2023-12-14T03:52:05;99296.00;;;4.80
45850;BMP180;10739;52.198;20.908;2023-12-14T03:54:31;99298.00;;;4.70
45850;BMP180;10739;52.198;20.908;2023-12-14T03:56:58;99305.00;;;4.70
45850;BMP180;10739;52.198;20.908;2023-12-14T03:59:24;99309.00;;;4.80
45850;BMP180;10739;52.198;20.908;2023-12-14T04:01:50;99314.00;;;4.60
45850;BMP180;10739;52.198;20.908;2023-12-14T04:04:16;99311.00;;;4.70
45850;BMP180;10739;52.198;20.908;2023-12-14T04:06:43;99307.00;;;4.80
45850;BMP180;10739;52.198;20.908;2023-12-14T04:09:09;99316.00;;;4.70
45850;BMP180;10739;52.198;20.908;2023-12-14T04:11:37;99317.00;;;4.50
45850;BMP180;10739;52.198;20.908;2023-12-14T04:14:03;99323.00;;;4.40
45850;BMP180;10739;52.198;20.908;2023-12-14T04:16:30;99321.00;;;4.50
45850;BMP180;10739;52.198;20.908;2023-12-14T04:18:56;99326.00;;;4.70
45850;BMP180;10739;52.198;20.908;2023-12-14T04:21:23;99327.00;;;4.60
45850;BMP180;10739;52.198;20.908;2023-12-14T04:23:50;99334.00;;;4.50
45850;BMP180;10739;52.198;20.908;2023-12-14T04:26:16;99324.00;;;4.50
45850;BMP180;10739;52.198;20.908;2023-12-14T04:28:42;99326.00;;;4.40
45850;BMP180;10739;52.198;20.908;2023-12-14T04:31:10;99324.00;;;4.40
45850;BMP180;10739;52.198;20.908;2023-12-14T04:33:37;99329.00;;;4.50
45850;BMP180;10739;52.198;20.908;2023-12-14T04:36:03;99336.00;;;4.50
45850;BMP180;10739;52.198;20.908;2023-12-14T04:38:30;99336.00;;;4.60
45850;BMP180;10739;52.198;20.908;2023-12-14T04:40:56;99332.00;;;4.50
45850;BMP180;10739;52.198;20.908;2023-12-14T04:43:24;99338.00;;;4.50
45850;BMP180;10739;52.198;20.908;2023-12-14T04:45:50;99343.00;;;4.40
45850;BMP180;10739;52.198;20.908;2023-12-14T04:48:16;99347.00;;;4.20
45850;BMP180;10739;52.198;20.908;2023-12-14T04:50:42;99348.00;;;4.20
45850;BMP180;10739;52.198;20.908;2023-12-14T04:53:09;99343.00;;;4.40
45850;BMP180;10739;52.198;20.908;2023-12-14T04:55:35;99354.00;;;4.40
45850;BMP180;10739;52.198;20.908;2023-12-14T04:58:02;99357.00;;;4.30
45850;BMP180;10739;52.198;20.908;2023-12-14T05:00:28;99356.00;;;4.30
45850;BMP180;10739;52.198;20.908;2023-12-14T05:02:55;99359.00;;;4.60
45850;BMP180;10739;52.198;20.908;2023-12-14T05:05:22;99369.00;;;4.50
45850;BMP180;10739;52.198;20.908;2023-12-14T05:07:48;99374.00;;;4.60
45850;BMP180;10739;52.198;20.908;2023-12-14T05:10:15;99373.00;;;4.50
45850;BMP180;10739;52.198;20.908;2023-12-14T05:12:41;99384.00;;;4.40
45850;BMP180;10739;52.198;20.908;2023-12-14T05:15:08;99381.00;;;4.50
45850;BMP180;10739;52.198;20.908;2023-12-14T05:17:34;99386.00;;;4.60
45850;BMP180;10739;52.198;20.908;2023-12-14T05:20:04;99390.00;;;4.60
45850;BMP180;10739;52.198;20.908;2023-12-14T05:22:34;99395.00;;;4.70
45850;BMP180;10739;52.198;20.908;2023-12-14T05:25:00;99402.00;;;4.80
45850;BMP180;10739;52.198;20.908;2023-12-14T05:27:26;99407.00;;;4.70
45850;BMP180;10739;52.198;20.908;2023-12-14T05:29:53;99410.00;;;4.70
45850;BMP180;10739;52.198;20.908;2023-12-14T05:32:19;99409.00;;;4.80
45850;BMP180;10739;52.198;20.908;2023-12-14T05:34:46;99417.00;;;4.70
45850;BMP180;10739;52.198;20.908;2023-12-14T05:37:14;99424.00;;;4.60
45850;BMP180;10739;52.198;20.908;2023-12-14T05:39:44;99425.00;;;4.40
45850;BMP180;10739;52.198;20.908;2023-12-14T05:42:11;99432.00;;;4.30
45850;BMP180;10739;52.198;20.908;2023-12-14T05:44:37;99431.00;;;4.50
45850;BMP180;10739;52.198;20.908;2023-12-14T05:47:04;99428.00;;;4.60
45850;BMP180;10739;52.198;20.908;2023-12-14T05:49:30;99432.00;;;4.50
45850;BMP180;10739;52.198;20.908;2023-12-14T05:51:59;99445.00;;;4.20
45850;BMP180;10739;52.198;20.908;2023-12-14T05:54:26;99440.00;;;4.50
45850;BMP180;10739;52.198;20.908;2023-12-14T05:56:53;99453.00;;;4.30
45850;BMP180;10739;52.198;20.908;2023-12-14T05:59:19;99452.00;;;4.30
45850;BMP180;10739;52.198;20.908;2023-12-14T06:01:46;99450.00;;;4.40
45850;BMP180;10739;52.198;20.908;2023-12-14T06:04:12;99458.00;;;4.20
45850;BMP180;10739;52.198;20.908;2023-12-14T06:06:39;99465.00;;;4.40
45850;BMP180;10739;52.198;20.908;2023-12-14T06:09:06;99467.00;;;4.40
45850;BMP180;10739;52.198;20.908;2023-12-14T06:11:34;99468.00;;;4.30
45850;BMP180;10739;52.198;20.908;2023-12-14T06:14:01;99478.00;;;4.20
45850;BMP180;10739;52.198;20.908;2023-12-14T06:16:27;99480.00;;;4.40
45850;BMP180;10739;52.198;20.908;2023-12-14T06:18:53;99486.00;;;4.50
45850;BMP180;10739;52.198;20.908;2023-12-14T06:21:20;99479.00;;;4.60
45850;BMP180;10739;52.198;20.908;2023-12-14T06:23:47;99485.00;;;4.50
45850;BMP180;10739;52.198;20.908;2023-12-14T06:26:13;99485.00;;;4.50
45850;BMP180;10739;52.198;20.908;2023-12-14T06:28:39;99491.00;;;4.50
45850;BMP180;10739;52.198;20.908;2023-12-14T06:31:12;99493.00;;;4.50
45850;BMP180;10739;52.198;20.908;2023-12-14T06:33:39;99486.00;;;4.40
45850;BMP180;10739;52.198;20.908;2023-12-14T06:36:07;99487.00;;;4.40
45850;BMP180;10739;52.198;20.908;2023-12-14T06:38:34;99489.00;;;4.60
45850;BMP180;10739;52.198;20.908;2023-12-14T06:41:01;99496.00;;;4.60
45850;BMP180;10739;52.198;20.908;2023-12-14T06:43:30;99503.00;;;4.60
45850;BMP180;10739;52.198;20.908;2023-12-14T06:45:57;99500.00;;;4.70
45850;BMP180;10739;52.198;20.908;2023-12-14T06:48:23;99504.00;;;4.60
45850;BMP180;10739;52.198;20.908;2023-12-14T06:50:50;99508.00;;;4.50
45850;BMP180;10739;52.198;20.908;2023-12-14T06:53:17;99504.00;;;4.50
45850;BMP180;10739;52.198;20.908;2023-12-14T06:55:43;99514.00;;;4.60
45850;BMP180;10739;52.198;20.908;2023-12-14T06:58:09;99514.00;;;4.60
45850;BMP180;10739;52.198;20.908;2023-12-14T07:00:38;99515.00;;;4.70
45850;BMP180;10739;52.198;20.908;2023-12-14T07:03:04;99520.00;;;4.50
45850;BMP180;10739;52.198;20.908;2023-12-14T07:05:31;99518.00;;;4.60
45850;BMP180;10739;52.198;20.908;2023-12-14T07:07:59;99525.00;;;4.70
45850;BMP180;10739;52.198;20.908;2023-12-14T07:10:25;99532.00;;;4.70
45850;BMP180;10739;52.198;20.908;2023-12-14T07:12:52;99533.00;;;4.60
45850;BMP180;10739;52.198;20.908;2023-12-14T07:15:19;99535.00;;;4.30
45850;BMP180;10739;52.198;20.908;2023-12-14T07:17:45;99538.00;;;4.20
45850;BMP180;10739;52.198;20.908;2023-12-14T07:20:12;99531.00;;;4.40
45850;BMP180;10739;52.198;20.908;2023-12-14T07:22:39;99530.00;;;4.40
45850;BMP180;10739;52.198;20.908;2023-12-14T07:25:06;99531.00;;;4.60
45850;BMP180;10739;52.198;20.908;2023-12-14T07:27:33;99536.00;;;4.50
45850;BMP180;10739;52.198;20.908;2023-12-14T07:29:59;99534.00;;;4.50
45850;BMP180;10739;52.198;20.908;2023-12-14T07:32:26;99534.00;;;4.50
45850;BMP180;10739;52.198;20.908;2023-12-14T07:34:53;99543.00;;;4.50
45850;BMP180;10739;52.198;20.908;2023-12-14T07:37:19;99539.00;;;4.60
45850;BMP180;10739;52.198;20.908;2023-12-14T07:39:45;99543.00;;;4.60
45850;BMP180;10739;52.198;20.908;2023-12-14T07:42:12;99548.00;;;4.60
45850;BMP180;10739;52.198;20.908;2023-12-14T07:44:44;99546.00;;;4.50
45850;BMP180;10739;52.198;20.908;2023-12-14T07:47:11;99549.00;;;4.60
45850;BMP180;10739;52.198;20.908;2023-12-14T07:49:37;99538.00;;;4.50
45850;BMP180;10739;52.198;20.908;2023-12-14T07:52:04;99543.00;;;4.60
45850;BMP180;10739;52.198;20.908;2023-12-14T07:54:30;99555.00;;;4.60
45850;BMP180;10739;52.198;20.908;2023-12-14T07:56:56;99562.00;;;4.60
45850;BMP180;10739;52.198;20.908;2023-12-14T07:59:24;99566.00;;;4.40
45850;BMP180;10739;52.198;20.908;2023-12-14T08:01:50;99568.00;;;4.40
45850;BMP180;10739;52.198;20.908;2023-12-14T08:04:17;99585.00;;;4.60
45850;BMP180;10739;52.198;20.908;2023-12-14T08:06:44;99585.00;;;4.50
45850;BMP180;10739;52.198;20.908;2023-12-14T08:09:10;99590.00;;;4.70
45850;BMP180;10739;52.198;20.908;2023-12-14T08:11:36;99591.00;;;4.80
45850;BMP180;10739;52.198;20.908;2023-12-14T08:14:03;99593.00;;;4.80
45850;BMP180;10739;52.198;20.908;2023-12-14T08:16:29;99595.00;;;4.70
45850;BMP180;10739;52.198;20.908;2023-12-14T08:18:56;99599.00;;;4.50
45850;BMP180;10739;52.198;20.908;2023-12-14T08:21:23;99602.00;;;4.30
45850;BMP180;10739;52.198;20.908;2023-12-14T08:23:50;99602.00;;;4.30
45850;BMP180;10739;52.198;20.908;2023-12-14T08:26:16;99607.00;;;4.20
45850;BMP180;10739;52.198;20.908;2023-12-14T08:28:42;99616.00;;;4.30
45850;BMP180;10739;52.198;20.908;2023-12-14T08:31:09;99619.00;;;4.30
45850;BMP180;10739;52.198;20.908;2023-12-14T08:33:37;99622.00;;;4.10
45850;BMP180;10739;52.198;20.908;2023-12-14T08:36:03;99613.00;;;4.10
45850;BMP180;10739;52.198;20.908;2023-12-14T08:38:31;99623.00;;;4.10
45850;BMP180;10739;52.198;20.908;2023-12-14T08:40:58;99618.00;;;4.10
45850;BMP180;10739;52.198;20.908;2023-12-14T08:43:24;99627.00;;;4.10
45850;BMP180;10739;52.198;20.908;2023-12-14T08:45:50;99633.00;;;4.10
45850;BMP180;10739;52.198;20.908;2023-12-14T08:48:18;99637.00;;;4.10
45850;BMP180;10739;52.198;20.908;2023-12-14T08:50:45;99640.00;;;4.10
45850;BMP180;10739;52.198;20.908;2023-12-14T08:53:11;99644.00;;;4.10
45850;BMP180;10739;52.198;20.908;2023-12-14T08:55:38;99657.00;;;4.10
45850;BMP180;10739;52.198;20.908;2023-12-14T08:58:04;99652.00;;;4.00
45850;BMP180;10739;52.198;20.908;2023-12-14T09:00:30;99651.00;;;4.10
45850;BMP180;10739;52.198;20.908;2023-12-14T09:02:57;99654.00;;;4.30
45850;BMP180;10739;52.198;20.908;2023-12-14T09:05:24;99659.00;;;4.20
45850;BMP180;10739;52.198;20.908;2023-12-14T09:07:50;99663.00;;;4.20
45850;BMP180;10739;52.198;20.908;2023-12-14T09:10:20;99669.00;;;4.20
45850;BMP180;10739;52.198;20.908;2023-12-14T09:12:47;99673.00;;;4.20
45850;BMP180;10739;52.198;20.908;2023-12-14T09:15:13;99663.00;;;4.10
45850;BMP180;10739;52.198;20.908;2023-12-14T09:17:41;99668.00;;;4.40
45850;BMP180;10739;52.198;20.908;2023-12-14T09:20:12;99672.00;;;4.40
45850;BMP180;10739;52.198;20.908;2023-12-14T09:22:39;99677.00;;;4.40
45850;BMP180;10739;52.198;20.908;2023-12-14T09:25:07;99675.00;;;4.10
45850;BMP180;10739;52.198;20.908;2023-12-14T09:27:35;99680.00;;;4.00
45850;BMP180;10739;52.198;20.908;2023-12-14T09:30:01;99689.00;;;4.00
45850;BMP180;10739;52.198;20.908;2023-12-14T09:32:28;99692.00;;;4.00
45850;BMP180;10739;52.198;20.908;2023-12-14T09:34:54;99692.00;;;4.10
45850;BMP180;10739;52.198;20.908;2023-12-14T09:37:22;99693.00;;;4.20
45850;BMP180;10739;52.198;20.908;2023-12-14T09:39:49;99693.00;;;4.30
45850;BMP180;10739;52.198;20.908;2023-12-14T09:42:19;99690.00;;;4.30
45850;BMP180;10739;52.198;20.908;2023-12-14T09:44:52;99692.00;;;4.30
45850;BMP180;10739;52.198;20.908;2023-12-14T09:47:19;99690.00;;;4.30
45850;BMP180;10739;52.198;20.908;2023-12-14T09:49:45;99689.00;;;4.20
45850;BMP180;10739;52.198;20.908;2023-12-14T09:52:13;99688.00;;;4.40
45850;BMP180;10739;52.198;20.908;2023-12-14T09:54:39;99700.00;;;4.40
45850;BMP180;10739;52.198;20.908;2023-12-14T09:57:06;99704.00;;;4.40
45850;BMP180;10739;52.198;20.908;2023-12-14T09:59:33;99700.00;;;4.20
45850;BMP180;10739;52.198;20.908;2023-12-14T10:02:17;99701.00;;;4.30
45850;BMP180;10739;52.198;20.908;2023-12-14T10:04:44;99693.00;;;4.30
45850;BMP180;10739;52.198;20.908;2023-12-14T10:07:10;99688.00;;;4.40
45850;BMP180;10739;52.198;20.908;2023-12-14T10:09:37;99686.00;;;4.40
45850;BMP180;10739;52.198;20.908;2023-12-14T10:12:07;99693.00;;;4.40
45850;BMP180;10739;52.198;20.908;2023-12-14T10:14:36;99685.00;;;4.40
45850;BMP180;10739;52.198;20.908;2023-12-14T10:17:19;99693.00;;;4.20
45850;BMP180;10739;52.198;20.908;2023-12-14T10:19:47;99686.00;;;4.40
45850;BMP180;10739;52.198;20.908;2023-12-14T10:22:15;99690.00;;;4.40
45850;BMP180;10739;52.198;20.908;2023-12-14T10:24:45;99697.00;;;4.30
45850;BMP180;10739;52.198;20.908;2023-12-14T10:27:14;99699.00;;;4.40
45850;BMP180;10739;52.198;20.908;2023-12-14T10:29:42;99701.00;;;4.50
45850;BMP180;10739;52.198;20.908;2023-12-14T10:32:11;99702.00;;;4.50
45850;BMP180;10739;52.198;20.908;2023-12-14T10:34:38;99709.00;;;4.50
45850;BMP180;10739;52.198;20.908;2023-12-14T10:37:10;99713.00;;;4.50
45850;BMP180;10739;52.198;20.908;2023-12-14T10:39:42;99722.00;;;4.20
45850;BMP180;10739;52.198;20.908;2023-12-14T10:42:09;99718.00;;;4.20
45850;BMP180;10739;52.198;20.908;2023-12-14T10:44:37;99725.00;;;4.10
45850;BMP180;10739;52.198;20.908;2023-12-14T10:47:06;99729.00;;;4.20
45850;BMP180;10739;52.198;20.908;2023-12-14T10:49:35;99717.00;;;4.30
45850;BMP180;10739;52.198;20.908;2023-12-14T10:52:03;99718.00;;;4.40
45850;BMP180;10739;52.198;20.908;2023-12-14T10:54:35;99722.00;;;4.40
45850;BMP180;10739;52.198;20.908;2023-12-14T10:57:02;99725.00;;;4.50
45850;BMP180;10739;52.198;20.908;2023-12-14T10:59:32;99730.00;;;4.50
45850;BMP180;10739;52.198;20.908;2023-12-14T11:01:58;99735.00;;;4.70
45850;BMP180;10739;52.198;20.908;2023-12-14T11:04:28;99737.00;;;4.60
45850;BMP180;10739;52.198;20.908;2023-12-14T11:06:54;99740.00;;;4.50
45850;BMP180;10739;52.198;20.908;2023-12-14T11:09:23;99749.00;;;4.50
45850;BMP180;10739;52.198;20.908;2023-12-14T11:14:24;99744.00;;;4.50
45850;BMP180;10739;52.198;20.908;2023-12-14T11:16:56;99744.00;;;4.40
45850;BMP180;10739;52.198;20.908;2023-12-14T11:24:30;99763.00;;;4.40
45850;BMP180;10739;52.198;20.908;2023-12-14T11:26:56;99759.00;;;4.50
45850;BMP180;10739;52.198;20.908;2023-12-14T11:29:23;99761.00;;;4.60
45850;BMP180;10739;52.198;20.908;2023-12-14T11:31:51;99765.00;;;4.40
45850;BMP180;10739;52.198;20.908;2023-12-14T11:34:18;99770.00;;;4.60
45850;BMP180;10739;52.198;20.908;2023-12-14T11:36:44;99768.00;;;4.50
45850;BMP180;10739;52.198;20.908;2023-12-14T11:39:11;99768.00;;;4.60
45850;BMP180;10739;52.198;20.908;2023-12-14T11:41:38;99769.00;;;4.60
45850;BMP180;10739;52.198;20.908;2023-12-14T11:44:05;99776.00;;;4.70
45850;BMP180;10739;52.198;20.908;2023-12-14T11:46:31;99783.00;;;4.60
45850;BMP180;10739;52.198;20.908;2023-12-14T11:48:58;99781.00;;;4.40
45850;BMP180;10739;52.198;20.908;2023-12-14T11:51:25;99778.00;;;4.60
45850;BMP180;10739;52.198;20.908;2023-12-14T11:53:52;99784.00;;;4.60
45850;BMP180;10739;52.198;20.908;2023-12-14T11:56:19;99791.00;;;4.60
45850;BMP180;10739;52.198;20.908;2023-12-14T11:58:49;99805.00;;;4.40
45850;BMP180;10739;52.198;20.908;2023-12-14T12:01:18;99789.00;;;4.40
45850;BMP180;10739;52.198;20.908;2023-12-14T12:03:45;99791.00;;;4.50
45850;BMP180;10739;52.198;20.908;2023-12-14T12:06:26;99788.00;;;4.50
45850;BMP180;10739;52.198;20.908;2023-12-14T12:08:59;99785.00;;;4.40
45850;BMP180;10739;52.198;20.908;2023-12-14T12:11:25;99788.00;;;4.50
45850;BMP180;10739;52.198;20.908;2023-12-14T12:13:55;99791.00;;;4.40
45850;BMP180;10739;52.198;20.908;2023-12-14T12:16:22;99797.00;;;4.40
45850;BMP180;10739;52.198;20.908;2023-12-14T12:18:49;99805.00;;;4.40
45850;BMP180;10739;52.198;20.908;2023-12-14T12:21:16;99799.00;;;4.60
45850;BMP180;10739;52.198;20.908;2023-12-14T12:23:43;99795.00;;;4.50
45850;BMP180;10739;52.198;20.908;2023-12-14T12:26:09;99809.00;;;4.30
45850;BMP180;10739;52.198;20.908;2023-12-14T12:28:36;99817.00;;;4.30
45850;BMP180;10739;52.198;20.908;2023-12-14T12:31:03;99804.00;;;4.40
45850;BMP180;10739;52.198;20.908;2023-12-14T12:33:30;99821.00;;;4.40
45850;BMP180;10739;52.198;20.908;2023-12-14T12:35:57;99807.00;;;4.10
45850;BMP180;10739;52.198;20.908;2023-12-14T12:38:23;99821.00;;;4.00
45850;BMP180;10739;52.198;20.908;2023-12-14T12:40:50;99827.00;;;4.20
45850;BMP180;10739;52.198;20.908;2023-12-14T12:43:16;99829.00;;;4.30
45850;BMP180;10739;52.198;20.908;2023-12-14T12:46:00;99836.00;;;4.40
45850;BMP180;10739;52.198;20.908;2023-12-14T12:48:48;99830.00;;;4.30
45850;BMP180;10739;52.198;20.908;2023-12-14T12:51:35;99834.00;;;4.10
45850;BMP180;10739;52.198;20.908;2023-12-14T12:54:22;99842.00;;;4.20
45850;BMP180;10739;52.198;20.908;2023-12-14T12:57:08;99835.00;;;4.20
45850;BMP180;10739;52.198;20.908;2023-12-14T12:59:54;99832.00;;;4.10
45850;BMP180;10739;52.198;20.908;2023-12-14T13:02:42;99830.00;;;4.00
45850;BMP180;10739;52.198;20.908;2023-12-14T13:05:28;99843.00;;;4.00
45850;BMP180;10739;52.198;20.908;2023-12-14T13:08:15;99846.00;;;4.10
45850;BMP180;10739;52.198;20.908;2023-12-14T13:11:01;99851.00;;;4.10
45850;BMP180;10739;52.198;20.908;2023-12-14T13:13:48;99851.00;;;4.10
45850;BMP180;10739;52.198;20.908;2023-12-14T13:16:35;99861.00;;;4.10
45850;BMP180;10739;52.198;20.908;2023-12-14T13:19:22;99858.00;;;4.00
45850;BMP180;10739;52.198;20.908;2023-12-14T13:22:09;99857.00;;;4.20
45850;BMP180;10739;52.198;20.908;2023-12-14T13:24:57;99856.00;;;4.20
45850;BMP180;10739;52.198;20.908;2023-12-14T13:27:43;99856.00;;;4.10
45850;BMP180;10739;52.198;20.908;2023-12-14T13:30:30;99860.00;;;4.10
45850;BMP180;10739;52.198;20.908;2023-12-14T13:33:16;99869.00;;;4.10
45850;BMP180;10739;52.198;20.908;2023-12-14T13:36:03;99874.00;;;4.20
45850;BMP180;10739;52.198;20.908;2023-12-14T13:38:50;99886.00;;;4.10
45850;BMP180;10739;52.198;20.908;2023-12-14T13:41:36;99890.00;;;4.00
45850;BMP180;10739;52.198;20.908;2023-12-14T13:44:22;99890.00;;;3.80
45850;BMP180;10739;52.198;20.908;2023-12-14T13:47:09;99891.00;;;4.00
45850;BMP180;10739;52.198;20.908;2023-12-14T13:49:55;99887.00;;;3.90
45850;BMP180;10739;52.198;20.908;2023-12-14T13:52:41;99896.00;;;3.80
45850;BMP180;10739;52.198;20.908;2023-12-14T13:55:08;99894.00;;;3.80
45850;BMP180;10739;52.198;20.908;2023-12-14T13:57:34;99902.00;;;3.90
45850;BMP180;10739;52.198;20.908;2023-12-14T14:00:00;99901.00;;;4.10
45850;BMP180;10739;52.198;20.908;2023-12-14T14:02:27;99904.00;;;3.90
45850;BMP180;10739;52.198;20.908;2023-12-14T14:04:54;99911.00;;;4.10
45850;BMP180;10739;52.198;20.908;2023-12-14T14:07:21;99913.00;;;3.80
45850;BMP180;10739;52.198;20.908;2023-12-14T14:09:48;99913.00;;;3.80
45850;BMP180;10739;52.198;20.908;2023-12-14T14:12:15;99918.00;;;3.80
45850;BMP180;10739;52.198;20.908;2023-12-14T14:14:41;99922.00;;;3.70
45850;BMP180;10739;52.198;20.908;2023-12-14T14:17:08;99928.00;;;3.80
45850;BMP180;10739;52.198;20.908;2023-12-14T14:19:34;99934.00;;;3.80
45850;BMP180;10739;52.198;20.908;2023-12-14T14:22:00;99939.00;;;3.90
45850;BMP180;10739;52.198;20.908;2023-12-14T14:24:27;99937.00;;;3.80